Alamance, North Carolina
Current Conditions -  °F | °C
As of 5:23 AM on Saturday 01 Nov 2014 (Local Time) from KBUY Reporting Station
Moderate Rain Moderate Rain  
Wind Chill: 42°   Ceiling: 2900
Heat Index: 46°   Visibility: 6mi
Dew Point: 43°   Wind: 8mph
Humidity: 89%   Direction: 40°NE
Pressure: 29.73"   Gusts: NA
Location:  36.04°N, 79.49°W
Report Text: KBUY 010923Z AUTO 04007KT 6SM RA BR BKN029 OVC035 08/06 A2973 RMK AO2 P0000 T00780061 $
Loading
Personal Weather Stations






























Interactive Weather Map
Tropical Storm Tracking
New forecast layout! Learn more

10-Day Weather Forecast

Advertisements
Track Severe Weather on mobile